sensor_id;sensor_type;location;lat;lon;timestamp;P1;durP1;ratioP1;P2;durP2;ratioP2
66593;SDS011;53450;42.584;23.366;2024-02-15T00:01:05;8.47;;;6.40;;
66593;SDS011;53450;42.584;23.366;2024-02-15T00:03:30;11.67;;;7.27;;
66593;SDS011;53450;42.584;23.366;2024-02-15T00:05:57;7.53;;;5.73;;
66593;SDS011;53450;42.584;23.366;2024-02-15T00:08:23;8.90;;;6.67;;
66593;SDS011;53450;42.584;23.366;2024-02-15T00:10:52;9.37;;;6.90;;
66593;SDS011;53450;42.584;23.366;2024-02-15T00:13:18;11.17;;;5.63;;
66593;SDS011;53450;42.584;23.366;2024-02-15T00:15:44;11.17;;;6.33;;
66593;SDS011;53450;42.584;23.366;2024-02-15T00:18:13;10.20;;;6.53;;
66593;SDS011;53450;42.584;23.366;2024-02-15T00:20:39;12.77;;;7.17;;
66593;SDS011;53450;42.584;23.366;2024-02-15T00:23:05;9.67;;;6.30;;
66593;SDS011;53450;42.584;23.366;2024-02-15T00:25:31;6.20;;;5.07;;
66593;SDS011;53450;42.584;23.366;2024-02-15T00:27:57;8.80;;;6.20;;
66593;SDS011;53450;42.584;23.366;2024-02-15T00:30:25;8.33;;;6.00;;
66593;SDS011;53450;42.584;23.366;2024-02-15T00:32:52;8.87;;;5.93;;
66593;SDS011;53450;42.584;23.366;2024-02-15T00:35:18;8.63;;;5.97;;
66593;SDS011;53450;42.584;23.366;2024-02-15T00:37:44;7.53;;;5.90;;
66593;SDS011;53450;42.584;23.366;2024-02-15T00:40:10;8.10;;;4.80;;
66593;SDS011;53450;42.584;23.366;2024-02-15T00:42:36;8.37;;;6.27;;
66593;SDS011;53450;42.584;23.366;2024-02-15T00:45:03;7.57;;;5.13;;
66593;SDS011;53450;42.584;23.366;2024-02-15T00:47:30;15.13;;;7.30;;
66593;SDS011;53450;42.584;23.366;2024-02-15T00:49:56;5.83;;;5.03;;
66593;SDS011;53450;42.584;23.366;2024-02-15T00:52:22;12.53;;;5.73;;
66593;SDS011;53450;42.584;23.366;2024-02-15T00:54:48;10.33;;;7.87;;
66593;SDS011;53450;42.584;23.366;2024-02-15T00:57:14;7.37;;;5.43;;
66593;SDS011;53450;42.584;23.366;2024-02-15T00:59:39;7.93;;;5.57;;
66593;SDS011;53450;42.584;23.366;2024-02-15T01:02:05;8.20;;;5.17;;
66593;SDS011;53450;42.584;23.366;2024-02-15T01:04:31;8.03;;;5.10;;
66593;SDS011;53450;42.584;23.366;2024-02-15T01:06:56;8.17;;;6.77;;
66593;SDS011;53450;42.584;23.366;2024-02-15T01:09:22;7.73;;;6.60;;
66593;SDS011;53450;42.584;23.366;2024-02-15T01:11:48;11.13;;;6.73;;
66593;SDS011;53450;42.584;23.366;2024-02-15T01:14:14;6.53;;;5.80;;
66593;SDS011;53450;42.584;23.366;2024-02-15T01:16:41;7.93;;;6.53;;
66593;SDS011;53450;42.584;23.366;2024-02-15T01:19:07;10.10;;;6.17;;
66593;SDS011;53450;42.584;23.366;2024-02-15T01:21:33;7.63;;;5.53;;
66593;SDS011;53450;42.584;23.366;2024-02-15T01:23:59;7.97;;;5.57;;
66593;SDS011;53450;42.584;23.366;2024-02-15T01:26:28;10.40;;;6.80;;
66593;SDS011;53450;42.584;23.366;2024-02-15T01:28:57;9.33;;;6.70;;
66593;SDS011;53450;42.584;23.366;2024-02-15T01:31:23;8.83;;;6.97;;
66593;SDS011;53450;42.584;23.366;2024-02-15T01:33:48;13.17;;;6.40;;
66593;SDS011;53450;42.584;23.366;2024-02-15T01:36:14;5.80;;;5.13;;
66593;SDS011;53450;42.584;23.366;2024-02-15T01:38:41;6.77;;;5.30;;
66593;SDS011;53450;42.584;23.366;2024-02-15T01:41:07;6.50;;;4.47;;
66593;SDS011;53450;42.584;23.366;2024-02-15T01:43:33;8.90;;;7.00;;
66593;SDS011;53450;42.584;23.366;2024-02-15T01:46:00;7.43;;;5.43;;
66593;SDS011;53450;42.584;23.366;2024-02-15T01:48:29;6.70;;;5.30;;
66593;SDS011;53450;42.584;23.366;2024-02-15T01:50:55;10.67;;;6.00;;
66593;SDS011;53450;42.584;23.366;2024-02-15T01:53:21;7.93;;;5.57;;
66593;SDS011;53450;42.584;23.366;2024-02-15T01:55:48;14.53;;;9.43;;
66593;SDS011;53450;42.584;23.366;2024-02-15T01:58:13;18.87;;;10.60;;
66593;SDS011;53450;42.584;23.366;2024-02-15T02:00:42;10.43;;;5.87;;
66593;SDS011;53450;42.584;23.366;2024-02-15T02:03:08;6.67;;;4.83;;
66593;SDS011;53450;42.584;23.366;2024-02-15T02:05:36;6.07;;;4.67;;
66593;SDS011;53450;42.584;23.366;2024-02-15T02:08:01;10.47;;;6.13;;
66593;SDS011;53450;42.584;23.366;2024-02-15T02:10:29;10.87;;;6.37;;
66593;SDS011;53450;42.584;23.366;2024-02-15T02:12:58;8.43;;;5.93;;
66593;SDS011;53450;42.584;23.366;2024-02-15T02:15:27;10.17;;;5.80;;
66593;SDS011;53450;42.584;23.366;2024-02-15T02:17:54;7.67;;;5.40;;
66593;SDS011;53450;42.584;23.366;2024-02-15T02:20:19;14.73;;;6.93;;
66593;SDS011;53450;42.584;23.366;2024-02-15T02:22:46;9.17;;;5.03;;
66593;SDS011;53450;42.584;23.366;2024-02-15T02:25:13;7.50;;;5.50;;
66593;SDS011;53450;42.584;23.366;2024-02-15T02:27:39;9.10;;;6.23;;
66593;SDS011;53450;42.584;23.366;2024-02-15T02:30:05;13.33;;;7.70;;
66593;SDS011;53450;42.584;23.366;2024-02-15T02:32:45;9.80;;;6.60;;
66593;SDS011;53450;42.584;23.366;2024-02-15T02:35:13;4.77;;;4.17;;
66593;SDS011;53450;42.584;23.366;2024-02-15T02:37:41;11.37;;;6.67;;
66593;SDS011;53450;42.584;23.366;2024-02-15T02:40:07;8.63;;;6.50;;
66593;SDS011;53450;42.584;23.366;2024-02-15T02:42:55;13.90;;;7.50;;
66593;SDS011;53450;42.584;23.366;2024-02-15T02:45:27;12.17;;;7.40;;
66593;SDS011;53450;42.584;23.366;2024-02-15T02:47:53;11.47;;;6.20;;
66593;SDS011;53450;42.584;23.366;2024-02-15T02:50:19;4.97;;;4.47;;
66593;SDS011;53450;42.584;23.366;2024-02-15T02:52:46;7.93;;;5.07;;
66593;SDS011;53450;42.584;23.366;2024-02-15T02:55:13;9.57;;;6.47;;
66593;SDS011;53450;42.584;23.366;2024-02-15T02:57:39;6.47;;;5.30;;
66593;SDS011;53450;42.584;23.366;2024-02-15T03:00:05;15.10;;;7.80;;
66593;SDS011;53450;42.584;23.366;2024-02-15T03:02:45;12.83;;;7.07;;
66593;SDS011;53450;42.584;23.366;2024-02-15T03:05:11;16.23;;;8.87;;
66593;SDS011;53450;42.584;23.366;2024-02-15T03:07:38;9.60;;;4.47;;
66593;SDS011;53450;42.584;23.366;2024-02-15T03:10:05;5.90;;;4.90;;
66593;SDS011;53450;42.584;23.366;2024-02-15T03:12:34;7.70;;;5.00;;
66593;SDS011;53450;42.584;23.366;2024-02-15T03:15:03;7.77;;;5.57;;
66593;SDS011;53450;42.584;23.366;2024-02-15T03:17:29;8.80;;;6.43;;
66593;SDS011;53450;42.584;23.366;2024-02-15T03:19:57;13.30;;;7.53;;
66593;SDS011;53450;42.584;23.366;2024-02-15T03:22:23;11.37;;;6.57;;
66593;SDS011;53450;42.584;23.366;2024-02-15T03:24:51;13.50;;;7.43;;
66593;SDS011;53450;42.584;23.366;2024-02-15T03:27:17;10.20;;;7.40;;
66593;SDS011;53450;42.584;23.366;2024-02-15T03:29:43;10.57;;;4.87;;
66593;SDS011;53450;42.584;23.366;2024-02-15T03:32:09;9.70;;;6.83;;
66593;SDS011;53450;42.584;23.366;2024-02-15T03:34:36;9.20;;;6.47;;
66593;SDS011;53450;42.584;23.366;2024-02-15T03:37:04;11.67;;;6.57;;
66593;SDS011;53450;42.584;23.366;2024-02-15T03:39:30;10.43;;;5.90;;
66593;SDS011;53450;42.584;23.366;2024-02-15T03:41:56;14.23;;;8.30;;
66593;SDS011;53450;42.584;23.366;2024-02-15T03:44:22;9.30;;;6.87;;
66593;SDS011;53450;42.584;23.366;2024-02-15T03:46:51;11.50;;;7.07;;
66593;SDS011;53450;42.584;23.366;2024-02-15T03:49:18;8.87;;;6.10;;
66593;SDS011;53450;42.584;23.366;2024-02-15T03:51:44;15.23;;;9.40;;
66593;SDS011;53450;42.584;23.366;2024-02-15T03:54:10;8.20;;;6.13;;
66593;SDS011;53450;42.584;23.366;2024-02-15T03:56:51;8.87;;;7.20;;
66593;SDS011;53450;42.584;23.366;2024-02-15T03:59:21;10.07;;;7.07;;
66593;SDS011;53450;42.584;23.366;2024-02-15T04:01:54;10.77;;;6.53;;
66593;SDS011;53450;42.584;23.366;2024-02-15T04:04:21;16.93;;;8.70;;
66593;SDS011;53450;42.584;23.366;2024-02-15T04:06:50;10.37;;;7.20;;
66593;SDS011;53450;42.584;23.366;2024-02-15T04:09:19;15.13;;;7.60;;
66593;SDS011;53450;42.584;23.366;2024-02-15T04:11:46;12.20;;;7.23;;
66593;SDS011;53450;42.584;23.366;2024-02-15T04:14:16;13.47;;;7.53;;
66593;SDS011;53450;42.584;23.366;2024-02-15T04:16:43;7.60;;;6.33;;
66593;SDS011;53450;42.584;23.366;2024-02-15T04:19:10;11.47;;;7.57;;
66593;SDS011;53450;42.584;23.366;2024-02-15T04:21:36;14.23;;;6.33;;
66593;SDS011;53450;42.584;23.366;2024-02-15T04:24:02;13.97;;;7.07;;
66593;SDS011;53450;42.584;23.366;2024-02-15T04:26:30;17.47;;;7.10;;
66593;SDS011;53450;42.584;23.366;2024-02-15T04:28:57;7.77;;;6.10;;
66593;SDS011;53450;42.584;23.366;2024-02-15T04:31:23;12.37;;;7.17;;
66593;SDS011;53450;42.584;23.366;2024-02-15T04:33:55;14.50;;;8.37;;
66593;SDS011;53450;42.584;23.366;2024-02-15T04:36:21;10.63;;;5.50;;
66593;SDS011;53450;42.584;23.366;2024-02-15T04:38:51;16.07;;;8.40;;
66593;SDS011;53450;42.584;23.366;2024-02-15T04:41:17;15.87;;;9.00;;
66593;SDS011;53450;42.584;23.366;2024-02-15T04:43:48;13.97;;;8.53;;
66593;SDS011;53450;42.584;23.366;2024-02-15T04:46:13;11.10;;;7.00;;
66593;SDS011;53450;42.584;23.366;2024-02-15T04:48:39;11.73;;;7.03;;
66593;SDS011;53450;42.584;23.366;2024-02-15T04:51:09;13.97;;;7.47;;
66593;SDS011;53450;42.584;23.366;2024-02-15T04:53:38;11.57;;;5.93;;
66593;SDS011;53450;42.584;23.366;2024-02-15T04:56:07;10.83;;;8.67;;
66593;SDS011;53450;42.584;23.366;2024-02-15T04:58:39;6.80;;;5.67;;
66593;SDS011;53450;42.584;23.366;2024-02-15T05:01:16;13.73;;;7.63;;
66593;SDS011;53450;42.584;23.366;2024-02-15T05:03:45;10.10;;;7.37;;
66593;SDS011;53450;42.584;23.366;2024-02-15T05:06:11;12.10;;;8.33;;
66593;SDS011;53450;42.584;23.366;2024-02-15T05:08:41;14.13;;;7.43;;
66593;SDS011;53450;42.584;23.366;2024-02-15T05:11:10;20.73;;;9.67;;
66593;SDS011;53450;42.584;23.366;2024-02-15T05:13:47;13.70;;;7.37;;
66593;SDS011;53450;42.584;23.366;2024-02-15T05:16:16;11.10;;;6.80;;
66593;SDS011;53450;42.584;23.366;2024-02-15T05:18:42;10.47;;;6.90;;
66593;SDS011;53450;42.584;23.366;2024-02-15T05:21:08;13.33;;;7.83;;
66593;SDS011;53450;42.584;23.366;2024-02-15T05:23:38;8.97;;;6.10;;
66593;SDS011;53450;42.584;23.366;2024-02-15T05:26:08;10.90;;;6.70;;
66593;SDS011;53450;42.584;23.366;2024-02-15T05:28:34;8.67;;;6.00;;
66593;SDS011;53450;42.584;23.366;2024-02-15T05:31:19;12.53;;;6.07;;
66593;SDS011;53450;42.584;23.366;2024-02-15T05:33:49;15.83;;;8.10;;
66593;SDS011;53450;42.584;23.366;2024-02-15T05:36:19;11.03;;;6.17;;
66593;SDS011;53450;42.584;23.366;2024-02-15T05:38:47;9.93;;;6.60;;
66593;SDS011;53450;42.584;23.366;2024-02-15T05:41:20;10.60;;;6.13;;
66593;SDS011;53450;42.584;23.366;2024-02-15T05:43:46;6.80;;;4.73;;
66593;SDS011;53450;42.584;23.366;2024-02-15T05:46:13;7.07;;;4.73;;
66593;SDS011;53450;42.584;23.366;2024-02-15T05:48:39;12.47;;;6.80;;
66593;SDS011;53450;42.584;23.366;2024-02-15T05:51:08;13.57;;;7.80;;
66593;SDS011;53450;42.584;23.366;2024-02-15T05:53:34;13.47;;;6.07;;
66593;SDS011;53450;42.584;23.366;2024-02-15T05:56:05;19.43;;;8.63;;
66593;SDS011;53450;42.584;23.366;2024-02-15T05:58:38;14.70;;;6.33;;
66593;SDS011;53450;42.584;23.366;2024-02-15T06:01:05;9.30;;;6.53;;
66593;SDS011;53450;42.584;23.366;2024-02-15T06:03:32;9.57;;;5.87;;
66593;SDS011;53450;42.584;23.366;2024-02-15T06:05:59;11.97;;;6.47;;
66593;SDS011;53450;42.584;23.366;2024-02-15T06:08:30;10.43;;;6.50;;
66593;SDS011;53450;42.584;23.366;2024-02-15T06:10:56;7.53;;;6.03;;
66593;SDS011;53450;42.584;23.366;2024-02-15T06:13:22;9.87;;;6.97;;
66593;SDS011;53450;42.584;23.366;2024-02-15T06:15:49;26.63;;;11.93;;
66593;SDS011;53450;42.584;23.366;2024-02-15T06:18:18;12.33;;;5.13;;
66593;SDS011;53450;42.584;23.366;2024-02-15T06:20:49;11.00;;;6.43;;
66593;SDS011;53450;42.584;23.366;2024-02-15T06:23:19;9.23;;;6.20;;
66593;SDS011;53450;42.584;23.366;2024-02-15T06:25:46;9.40;;;5.07;;
66593;SDS011;53450;42.584;23.366;2024-02-15T06:28:14;8.93;;;5.53;;
66593;SDS011;53450;42.584;23.366;2024-02-15T06:30:59;6.70;;;5.20;;
66593;SDS011;53450;42.584;23.366;2024-02-15T06:36:55;6.77;;;5.97;;
66593;SDS011;53450;42.584;23.366;2024-02-15T06:39:40;10.00;;;7.17;;
66593;SDS011;53450;42.584;23.366;2024-02-15T06:42:16;13.97;;;6.13;;
66593;SDS011;53450;42.584;23.366;2024-02-15T06:44:44;6.57;;;5.00;;
66593;SDS011;53450;42.584;23.366;2024-02-15T06:47:10;14.87;;;7.07;;
66593;SDS011;53450;42.584;23.366;2024-02-15T06:49:37;10.93;;;6.97;;
66593;SDS011;53450;42.584;23.366;2024-02-15T06:52:09;6.93;;;5.43;;
66593;SDS011;53450;42.584;23.366;2024-02-15T06:54:39;11.73;;;7.27;;
66593;SDS011;53450;42.584;23.366;2024-02-15T06:57:06;7.60;;;5.27;;
66593;SDS011;53450;42.584;23.366;2024-02-15T06:59:32;10.67;;;5.90;;
66593;SDS011;53450;42.584;23.366;2024-02-15T07:02:02;9.80;;;6.43;;
66593;SDS011;53450;42.584;23.366;2024-02-15T07:04:30;11.70;;;7.45;;
66593;SDS011;53450;42.584;23.366;2024-02-15T07:06:57;11.40;;;6.43;;
66593;SDS011;53450;42.584;23.366;2024-02-15T07:09:33;14.80;;;6.90;;
66593;SDS011;53450;42.584;23.366;2024-02-15T07:11:59;10.87;;;5.40;;
66593;SDS011;53450;42.584;23.366;2024-02-15T07:14:27;12.43;;;7.03;;
66593;SDS011;53450;42.584;23.366;2024-02-15T07:16:53;8.50;;;5.93;;
66593;SDS011;53450;42.584;23.366;2024-02-15T07:19:31;13.17;;;8.37;;
66593;SDS011;53450;42.584;23.366;2024-02-15T07:22:01;12.60;;;7.27;;
66593;SDS011;53450;42.584;23.366;2024-02-15T07:24:27;7.50;;;5.87;;
66593;SDS011;53450;42.584;23.366;2024-02-15T07:26:53;10.73;;;6.60;;
66593;SDS011;53450;42.584;23.366;2024-02-15T07:29:21;15.80;;;6.97;;
66593;SDS011;53450;42.584;23.366;2024-02-15T07:31:49;8.57;;;6.10;;
66593;SDS011;53450;42.584;23.366;2024-02-15T07:34:14;7.17;;;4.90;;
66593;SDS011;53450;42.584;23.366;2024-02-15T07:36:44;12.30;;;7.27;;
66593;SDS011;53450;42.584;23.366;2024-02-15T07:39:10;6.03;;;5.47;;
66593;SDS011;53450;42.584;23.366;2024-02-15T07:41:38;7.47;;;5.80;;
66593;SDS011;53450;42.584;23.366;2024-02-15T07:44:04;7.67;;;5.07;;
66593;SDS011;53450;42.584;23.366;2024-02-15T07:46:29;4.57;;;4.10;;
66593;SDS011;53450;42.584;23.366;2024-02-15T07:51:37;14.43;;;5.88;;
66593;SDS011;53450;42.584;23.366;2024-02-15T07:54:05;16.40;;;7.57;;
66593;SDS011;53450;42.584;23.366;2024-02-15T07:56:31;5.37;;;4.50;;
66593;SDS011;53450;42.584;23.366;2024-02-15T07:58:57;5.80;;;4.53;;
66593;SDS011;53450;42.584;23.366;2024-02-15T08:01:22;8.63;;;5.30;;
66593;SDS011;53450;42.584;23.366;2024-02-15T08:03:48;7.60;;;4.67;;
66593;SDS011;53450;42.584;23.366;2024-02-15T08:06:14;11.87;;;6.60;;
66593;SDS011;53450;42.584;23.366;2024-02-15T08:08:42;15.83;;;7.57;;
66593;SDS011;53450;42.584;23.366;2024-02-15T08:11:11;8.90;;;5.50;;
66593;SDS011;53450;42.584;23.366;2024-02-15T08:13:46;7.40;;;5.53;;
66593;SDS011;53450;42.584;23.366;2024-02-15T08:16:21;10.90;;;6.70;;
66593;SDS011;53450;42.584;23.366;2024-02-15T08:18:48;11.23;;;7.70;;
66593;SDS011;53450;42.584;23.366;2024-02-15T08:21:17;9.60;;;5.23;;
66593;SDS011;53450;42.584;23.366;2024-02-15T08:23:43;7.80;;;4.87;;
66593;SDS011;53450;42.584;23.366;2024-02-15T08:26:09;12.03;;;6.93;;
66593;SDS011;53450;42.584;23.366;2024-02-15T08:28:36;7.93;;;5.27;;
66593;SDS011;53450;42.584;23.366;2024-02-15T08:31:02;7.67;;;5.40;;
66593;SDS011;53450;42.584;23.366;2024-02-15T08:33:29;15.00;;;7.63;;
66593;SDS011;53450;42.584;23.366;2024-02-15T08:35:55;8.27;;;5.80;;
66593;SDS011;53450;42.584;23.366;2024-02-15T08:38:22;12.60;;;6.67;;
66593;SDS011;53450;42.584;23.366;2024-02-15T08:40:48;10.67;;;6.73;;
66593;SDS011;53450;42.584;23.366;2024-02-15T08:43:16;15.37;;;6.70;;
66593;SDS011;53450;42.584;23.366;2024-02-15T08:45:42;8.00;;;6.53;;
66593;SDS011;53450;42.584;23.366;2024-02-15T08:48:08;6.73;;;4.67;;
66593;SDS011;53450;42.584;23.366;2024-02-15T08:50:34;11.97;;;6.13;;
66593;SDS011;53450;42.584;23.366;2024-02-15T08:53:00;15.33;;;8.07;;
66593;SDS011;53450;42.584;23.366;2024-02-15T08:55:26;11.40;;;6.73;;
66593;SDS011;53450;42.584;23.366;2024-02-15T08:57:53;9.03;;;5.93;;
66593;SDS011;53450;42.584;23.366;2024-02-15T09:00:19;14.10;;;6.97;;
66593;SDS011;53450;42.584;23.366;2024-02-15T09:02:45;9.17;;;6.33;;
66593;SDS011;53450;42.584;23.366;2024-02-15T09:05:12;13.13;;;6.33;;
66593;SDS011;53450;42.584;23.366;2024-02-15T09:07:40;20.70;;;10.53;;
66593;SDS011;53450;42.584;23.366;2024-02-15T09:10:08;9.03;;;7.10;;
66593;SDS011;53450;42.584;23.366;2024-02-15T09:12:38;9.67;;;6.27;;
66593;SDS011;53450;42.584;23.366;2024-02-15T09:15:06;12.60;;;6.93;;
66593;SDS011;53450;42.584;23.366;2024-02-15T09:17:33;8.50;;;6.43;;
66593;SDS011;53450;42.584;23.366;2024-02-15T09:20:06;12.60;;;6.53;;
66593;SDS011;53450;42.584;23.366;2024-02-15T09:22:49;9.27;;;6.47;;
66593;SDS011;53450;42.584;23.366;2024-02-15T09:25:19;14.70;;;6.80;;
66593;SDS011;53450;42.584;23.366;2024-02-15T09:27:44;12.23;;;8.23;;
66593;SDS011;53450;42.584;23.366;2024-02-15T09:30:13;10.20;;;6.03;;
66593;SDS011;53450;42.584;23.366;2024-02-15T09:32:40;11.40;;;7.47;;
66593;SDS011;53450;42.584;23.366;2024-02-15T09:35:06;12.13;;;6.50;;
66593;SDS011;53450;42.584;23.366;2024-02-15T09:37:46;13.73;;;7.90;;
66593;SDS011;53450;42.584;23.366;2024-02-15T09:40:17;8.27;;;4.83;;
66593;SDS011;53450;42.584;23.366;2024-02-15T09:42:44;9.03;;;6.50;;
66593;SDS011;53450;42.584;23.366;2024-02-15T09:45:11;11.83;;;5.90;;
66593;SDS011;53450;42.584;23.366;2024-02-15T09:47:38;13.27;;;6.63;;
66593;SDS011;53450;42.584;23.366;2024-02-15T09:50:07;8.70;;;6.13;;
66593;SDS011;53450;42.584;23.366;2024-02-15T09:52:36;11.57;;;7.47;;
66593;SDS011;53450;42.584;23.366;2024-02-15T09:55:04;7.27;;;5.07;;
66593;SDS011;53450;42.584;23.366;2024-02-15T09:57:30;11.67;;;8.20;;
66593;SDS011;53450;42.584;23.366;2024-02-15T10:00:00;13.53;;;8.20;;
66593;SDS011;53450;42.584;23.366;2024-02-15T10:02:29;11.73;;;6.50;;
66593;SDS011;53450;42.584;23.366;2024-02-15T10:04:56;9.83;;;5.83;;
66593;SDS011;53450;42.584;23.366;2024-02-15T10:07:25;9.00;;;6.53;;
66593;SDS011;53450;42.584;23.366;2024-02-15T10:09:52;10.37;;;6.07;;
66593;SDS011;53450;42.584;23.366;2024-02-15T10:12:18;18.27;;;6.00;;
66593;SDS011;53450;42.584;23.366;2024-02-15T10:14:50;14.83;;;8.13;;
66593;SDS011;53450;42.584;23.366;2024-02-15T10:17:19;10.67;;;6.13;;
66593;SDS011;53450;42.584;23.366;2024-02-15T10:20:03;10.23;;;6.03;;
66593;SDS011;53450;42.584;23.366;2024-02-15T10:22:30;7.90;;;5.73;;
66593;SDS011;53450;42.584;23.366;2024-02-15T10:25:56;13.67;;;8.87;;
66593;SDS011;53450;42.584;23.366;2024-02-15T10:28:07;12.10;;;6.60;;
66593;SDS011;53450;42.584;23.366;2024-02-15T10:30:38;18.00;;;8.00;;
66593;SDS011;53450;42.584;23.366;2024-02-15T10:33:28;14.27;;;7.63;;
66593;SDS011;53450;42.584;23.366;2024-02-15T10:36:16;14.07;;;7.90;;
66593;SDS011;53450;42.584;23.366;2024-02-15T10:38:42;14.73;;;7.30;;
66593;SDS011;53450;42.584;23.366;2024-02-15T10:41:08;10.13;;;6.27;;
66593;SDS011;53450;42.584;23.366;2024-02-15T10:43:36;12.33;;;6.47;;
66593;SDS011;53450;42.584;23.366;2024-02-15T10:46:04;7.80;;;5.28;;
66593;SDS011;53450;42.584;23.366;2024-02-15T10:48:37;8.48;;;5.70;;
66593;SDS011;53450;42.584;23.366;2024-02-15T10:51:03;18.52;;;6.53;;
66593;SDS011;53450;42.584;23.366;2024-02-15T10:53:36;9.18;;;5.70;;
66593;SDS011;53450;42.584;23.366;2024-02-15T10:56:21;6.43;;;5.30;;
66593;SDS011;53450;42.584;23.366;2024-02-15T10:58:59;12.95;;;6.97;;
66593;SDS011;53450;42.584;23.366;2024-02-15T11:01:35;13.10;;;7.43;;
66593;SDS011;53450;42.584;23.366;2024-02-15T11:04:05;13.35;;;7.53;;
66593;SDS011;53450;42.584;23.366;2024-02-15T11:06:39;10.63;;;5.28;;
66593;SDS011;53450;42.584;23.366;2024-02-15T11:09:07;13.45;;;7.63;;
66593;SDS011;53450;42.584;23.366;2024-02-15T11:11:33;10.60;;;6.35;;
66593;SDS011;53450;42.584;23.366;2024-02-15T11:14:25;11.80;;;6.35;;
66593;SDS011;53450;42.584;23.366;2024-02-15T11:16:59;9.50;;;7.43;;
66593;SDS011;53450;42.584;23.366;2024-02-15T11:21:57;8.68;;;5.75;;
66593;SDS011;53450;42.584;23.366;2024-02-15T11:24:29;13.90;;;7.30;;
66593;SDS011;53450;42.584;23.366;2024-02-15T11:27:02;13.15;;;7.00;;
66593;SDS011;53450;42.584;23.366;2024-02-15T11:35:26;8.73;;;5.90;;
66593;SDS011;53450;42.584;23.366;2024-02-15T11:37:58;11.18;;;6.28;;
66593;SDS011;53450;42.584;23.366;2024-02-15T11:40:25;5.50;;;4.07;;
66593;SDS011;53450;42.584;23.366;2024-02-15T11:45:25;6.35;;;3.95;;
66593;SDS011;53450;42.584;23.366;2024-02-15T11:48:10;7.80;;;5.90;;
66593;SDS011;53450;42.584;23.366;2024-02-15T11:50:39;6.40;;;5.15;;
66593;SDS011;53450;42.584;23.366;2024-02-15T11:53:05;10.73;;;5.90;;
66593;SDS011;53450;42.584;23.366;2024-02-15T11:55:35;13.20;;;5.63;;
66593;SDS011;53450;42.584;23.366;2024-02-15T11:58:07;12.13;;;5.45;;
66593;SDS011;53450;42.584;23.366;2024-02-15T12:00:59;10.73;;;6.05;;
66593;SDS011;53450;42.584;23.366;2024-02-15T12:03:44;8.65;;;6.20;;
66593;SDS011;53450;42.584;23.366;2024-02-15T12:06:30;6.85;;;4.25;;
66593;SDS011;53450;42.584;23.366;2024-02-15T12:09:17;7.40;;;5.43;;
66593;SDS011;53450;42.584;23.366;2024-02-15T12:12:02;5.70;;;4.38;;
66593;SDS011;53450;42.584;23.366;2024-02-15T12:15:01;4.95;;;3.75;;
66593;SDS011;53450;42.584;23.366;2024-02-15T12:17:51;4.82;;;4.18;;
66593;SDS011;53450;42.584;23.366;2024-02-15T12:20:35;8.80;;;5.13;;
66593;SDS011;53450;42.584;23.366;2024-02-15T12:23:04;10.25;;;5.85;;
66593;SDS011;53450;42.584;23.366;2024-02-15T12:25:32;8.68;;;5.57;;
66593;SDS011;53450;42.584;23.366;2024-02-15T12:28:03;10.57;;;6.03;;
66593;SDS011;53450;42.584;23.366;2024-02-15T12:30:33;8.70;;;6.03;;
66593;SDS011;53450;42.584;23.366;2024-02-15T12:33:13;8.07;;;5.07;;
66593;SDS011;53450;42.584;23.366;2024-02-15T12:35:46;7.28;;;5.05;;
66593;SDS011;53450;42.584;23.366;2024-02-15T12:38:12;7.60;;;4.68;;
66593;SDS011;53450;42.584;23.366;2024-02-15T12:40:42;9.63;;;5.07;;
66593;SDS011;53450;42.584;23.366;2024-02-15T12:43:11;10.48;;;5.50;;
66593;SDS011;53450;42.584;23.366;2024-02-15T12:45:38;5.97;;;4.75;;
66593;SDS011;53450;42.584;23.366;2024-02-15T12:48:08;8.20;;;4.13;;
66593;SDS011;53450;42.584;23.366;2024-02-15T12:50:36;5.82;;;4.55;;
66593;SDS011;53450;42.584;23.366;2024-02-15T12:53:01;7.47;;;5.00;;
66593;SDS011;53450;42.584;23.366;2024-02-15T12:55:28;12.38;;;5.55;;
66593;SDS011;53450;42.584;23.366;2024-02-15T12:57:59;10.20;;;5.85;;
66593;SDS011;53450;42.584;23.366;2024-02-15T13:00:42;7.78;;;4.95;;
66593;SDS011;53450;42.584;23.366;2024-02-15T13:03:09;9.30;;;5.55;;
66593;SDS011;53450;42.584;23.366;2024-02-15T13:05:40;10.98;;;5.93;;
66593;SDS011;53450;42.584;23.366;2024-02-15T13:08:08;8.00;;;5.85;;
66593;SDS011;53450;42.584;23.366;2024-02-15T13:10:38;8.30;;;5.05;;
66593;SDS011;53450;42.584;23.366;2024-02-15T13:13:07;7.07;;;5.25;;
66593;SDS011;53450;42.584;23.366;2024-02-15T13:15:35;6.90;;;5.13;;
66593;SDS011;53450;42.584;23.366;2024-02-15T13:18:05;8.98;;;5.63;;
66593;SDS011;53450;42.584;23.366;2024-02-15T13:20:39;8.95;;;5.05;;
66593;SDS011;53450;42.584;23.366;2024-02-15T13:23:08;5.70;;;4.28;;
66593;SDS011;53450;42.584;23.366;2024-02-15T13:25:40;8.18;;;5.20;;
66593;SDS011;53450;42.584;23.366;2024-02-15T13:28:08;7.97;;;5.15;;
66593;SDS011;53450;42.584;23.366;2024-02-15T13:30:35;7.63;;;5.90;;
66593;SDS011;53450;42.584;23.366;2024-02-15T13:33:02;13.30;;;6.15;;
66593;SDS011;53450;42.584;23.366;2024-02-15T13:35:28;11.68;;;7.13;;
66593;SDS011;53450;42.584;23.366;2024-02-15T13:37:54;12.07;;;5.43;;
66593;SDS011;53450;42.584;23.366;2024-02-15T13:40:23;8.38;;;5.60;;
66593;SDS011;53450;42.584;23.366;2024-02-15T13:42:50;8.40;;;5.85;;
66593;SDS011;53450;42.584;23.366;2024-02-15T13:48:06;5.68;;;5.07;;
66593;SDS011;53450;42.584;23.366;2024-02-15T13:50:35;7.40;;;5.03;;
66593;SDS011;53450;42.584;23.366;2024-02-15T13:53:06;6.80;;;5.50;;
66593;SDS011;53450;42.584;23.366;2024-02-15T13:55:32;10.18;;;6.10;;
66593;SDS011;53450;42.584;23.366;2024-02-15T13:57:59;7.57;;;5.38;;
66593;SDS011;53450;42.584;23.366;2024-02-15T14:00:25;7.57;;;6.15;;
66593;SDS011;53450;42.584;23.366;2024-02-15T14:03:02;9.32;;;5.70;;
66593;SDS011;53450;42.584;23.366;2024-02-15T14:05:31;11.02;;;5.68;;
66593;SDS011;53450;42.584;23.366;2024-02-15T14:10:38;8.30;;;5.38;;
66593;SDS011;53450;42.584;23.366;2024-02-15T14:13:04;6.15;;;4.90;;
66593;SDS011;53450;42.584;23.366;2024-02-15T14:15:31;8.13;;;5.82;;
66593;SDS011;53450;42.584;23.366;2024-02-15T14:18:07;18.73;;;9.50;;
66593;SDS011;53450;42.584;23.366;2024-02-15T14:20:44;21.70;;;12.57;;
66593;SDS011;53450;42.584;23.366;2024-02-15T14:23:12;8.82;;;5.03;;
66593;SDS011;53450;42.584;23.366;2024-02-15T14:25:45;23.48;;;12.85;;
66593;SDS011;53450;42.584;23.366;2024-02-15T14:28:14;23.27;;;11.43;;
66593;SDS011;53450;42.584;23.366;2024-02-15T14:30:46;25.05;;;13.75;;
66593;SDS011;53450;42.584;23.366;2024-02-15T14:33:30;17.67;;;11.90;;
66593;SDS011;53450;42.584;23.366;2024-02-15T14:35:59;16.75;;;10.65;;
66593;SDS011;53450;42.584;23.366;2024-02-15T14:38:24;21.38;;;13.00;;
66593;SDS011;53450;42.584;23.366;2024-02-15T14:40:50;46.97;;;24.08;;
66593;SDS011;53450;42.584;23.366;2024-02-15T14:43:19;36.35;;;19.77;;
66593;SDS011;53450;42.584;23.366;2024-02-15T14:45:48;27.88;;;15.45;;
66593;SDS011;53450;42.584;23.366;2024-02-15T14:48:14;27.85;;;17.10;;
66593;SDS011;53450;42.584;23.366;2024-02-15T14:50:42;12.93;;;7.63;;
66593;SDS011;53450;42.584;23.366;2024-02-15T14:53:09;9.68;;;6.97;;
66593;SDS011;53450;42.584;23.366;2024-02-15T14:55:35;19.42;;;10.38;;
66593;SDS011;53450;42.584;23.366;2024-02-15T14:58:04;22.35;;;9.18;;
66593;SDS011;53450;42.584;23.366;2024-02-15T15:00:33;15.13;;;9.00;;